Aviation Digital Data Service (ADDS)

Output produced by TAFs form (1143 UTC 01 November 2014)
found at http://aviationweather.gov/adds/tafs/
 
KCNY 011128Z 0112/0212 16012KT P6SM FEW040 BKN090 
     FM011400 14011KT P6SM BKN090 
     FM011600 20020G28KT P6SM VCSH SCT070 BKN100 
     FM012000 21025G35KT P6SM BKN110 
     FM020200 16012KT P6SM SCT070 OVC100